Time,TemperatureF,DewpointF,PressureIn,WindDirection,WindDirectionDegrees,WindSpeedMPH,WindSpeedGustMPH,Humidity,HourlyPrecipIn,Conditions,Clouds,dailyrainin,SoftwareType,DateUTC
2013-08-19 00:05:00,72.9,58.6,29.83,West,264,0.0,0.0,61,0.00,,,0.00,meteobridge,2013-08-19 07:05:00,
2013-08-19 00:12:00,72.3,58.1,29.82,West,264,0.0,0.0,61,0.00,,,0.00,meteobridge,2013-08-19 07:12:00,
2013-08-19 00:18:00,72.0,58.3,29.82,West,264,0.0,0.0,62,0.00,,,0.00,meteobridge,2013-08-19 07:18:00,
2013-08-19 00:24:00,71.8,58.5,29.82,West,264,0.0,0.0,63,0.00,,,0.00,meteobridge,2013-08-19 07:24:00,
2013-08-19 00:30:00,71.2,58.5,29.82,West,264,0.0,0.0,64,0.00,,,0.00,meteobridge,2013-08-19 07:30:00,
2013-08-19 00:37:00,71.1,58.6,29.82,West,264,0.0,0.0,65,0.00,,,0.00,meteobridge,2013-08-19 07:37:00,
2013-08-19 00:43:00,70.9,58.5,29.82,West,264,0.0,0.0,65,0.00,,,0.00,meteobridge,2013-08-19 07:43:00,
2013-08-19 00:49:00,70.5,58.6,29.82,West,267,0.0,0.0,66,0.00,,,0.00,meteobridge,2013-08-19 07:49:00,
2013-08-19 00:55:00,70.3,58.5,29.82,West,267,0.0,0.0,66,0.00,,,0.00,meteobridge,2013-08-19 07:55:00,
2013-08-19 01:02:00,69.8,58.3,29.82,West,267,0.0,0.0,67,0.00,,,0.00,meteobridge,2013-08-19 08:02:00,
2013-08-19 01:08:00,69.4,58.5,29.82,West,266,0.0,0.0,68,0.00,,,0.00,meteobridge,2013-08-19 08:08:00,
2013-08-19 01:14:00,69.1,58.1,29.82,West,266,0.0,0.0,68,0.00,,,0.00,meteobridge,2013-08-19 08:14:00,
2013-08-19 01:20:00,68.9,58.6,29.82,West,274,0.9,0.9,70,0.00,,,0.00,meteobridge,2013-08-19 08:20:00,
2013-08-19 01:26:00,68.9,58.6,29.82,NW,326,0.0,0.0,70,0.00,,,0.00,meteobridge,2013-08-19 08:26:00,
2013-08-19 01:33:00,68.7,59.0,29.83,NW,326,0.0,0.0,71,0.00,,,0.00,meteobridge,2013-08-19 08:33:00,
2013-08-19 01:39:00,68.5,58.8,29.83,NW,326,0.0,0.0,71,0.00,,,0.00,meteobridge,2013-08-19 08:39:00,
2013-08-19 01:45:00,68.4,58.6,29.82,NW,326,0.0,0.0,71,0.00,,,0.00,meteobridge,2013-08-19 08:45:00,
2013-08-19 01:51:00,68.0,58.6,29.82,NW,326,0.9,0.9,72,0.00,,,0.00,meteobridge,2013-08-19 08:51:00,
2013-08-19 01:57:00,68.0,59.0,29.82,NW,326,0.0,0.0,73,0.00,,,0.00,meteobridge,2013-08-19 08:57:00,
2013-08-19 02:03:00,67.8,58.8,29.82,NW,326,0.0,0.0,73,0.00,,,0.00,meteobridge,2013-08-19 09:03:00,
2013-08-19 02:10:00,67.8,58.8,29.82,NW,326,0.0,0.0,73,0.00,,,0.00,meteobridge,2013-08-19 09:10:00,
2013-08-19 02:16:00,67.6,58.3,29.81,NW,326,0.0,0.0,72,0.00,,,0.00,meteobridge,2013-08-19 09:16:00,
2013-08-19 02:22:00,67.5,58.5,29.80,WNW,302,0.0,0.0,73,0.00,,,0.00,meteobridge,2013-08-19 09:22:00,
2013-08-19 02:28:00,67.3,58.3,29.80,NW,304,0.0,0.0,73,0.00,,,0.00,meteobridge,2013-08-19 09:28:00,
2013-08-19 02:34:00,66.9,58.3,29.80,NW,304,0.0,0.0,74,0.00,,,0.00,meteobridge,2013-08-19 09:34:00,
2013-08-19 02:41:00,66.6,58.5,29.80,NW,304,0.0,0.0,75,0.00,,,0.00,meteobridge,2013-08-19 09:41:00,
2013-08-19 02:47:00,66.6,58.1,29.80,WNW,302,0.0,0.0,74,0.00,,,0.00,meteobridge,2013-08-19 09:47:00,
2013-08-19 02:53:00,66.4,57.9,29.80,WNW,303,0.0,0.0,74,0.00,,,0.00,meteobridge,2013-08-19 09:53:00,
2013-08-19 02:59:00,66.7,58.1,29.81,NNW,341,0.0,0.0,74,0.00,,,0.00,meteobridge,2013-08-19 09:59:00,
2013-08-19 03:05:00,67.1,57.7,29.81,East,98,0.0,0.9,72,0.00,,,0.00,meteobridge,2013-08-19 10:05:00,
2013-08-19 03:12:00,67.1,57.7,29.81,SSE,158,0.0,0.0,72,0.00,,,0.00,meteobridge,2013-08-19 10:12:00,
2013-08-19 03:18:00,66.7,57.7,29.81,SSE,158,0.0,0.0,73,0.00,,,0.00,meteobridge,2013-08-19 10:18:00,
2013-08-19 03:24:00,66.6,58.1,29.81,SSE,158,0.0,0.0,74,0.00,,,0.00,meteobridge,2013-08-19 10:24:00,
2013-08-19 03:30:00,66.6,58.1,29.81,SSE,158,0.0,0.0,74,0.00,,,0.00,meteobridge,2013-08-19 10:30:00,
2013-08-19 03:36:00,66.6,58.1,29.80,SSE,158,0.0,0.0,74,0.00,,,0.00,meteobridge,2013-08-19 10:36:00,
2013-08-19 03:43:00,66.4,57.9,29.81,SSE,158,0.0,0.0,74,0.00,,,0.00,meteobridge,2013-08-19 10:43:00,
2013-08-19 03:49:00,66.4,57.9,29.80,SSE,158,0.0,0.0,74,0.00,,,0.00,meteobridge,2013-08-19 10:49:00,
2013-08-19 03:55:00,66.2,57.2,29.80,SSE,158,0.0,0.0,73,0.00,,,0.00,meteobridge,2013-08-19 10:55:00,
2013-08-19 04:01:00,66.0,57.2,29.80,SSE,157,0.0,0.0,73,0.00,,,0.00,meteobridge,2013-08-19 11:01:00,
2013-08-19 04:07:00,66.0,57.6,29.81,SSE,150,0.0,0.0,74,0.00,,,0.00,meteobridge,2013-08-19 11:07:00,
2013-08-19 04:14:00,65.8,57.4,29.81,SSE,150,0.0,0.0,74,0.00,,,0.00,meteobridge,2013-08-19 11:14:00,
2013-08-19 04:20:00,65.7,57.6,29.81,SSW,200,0.0,0.0,75,0.00,,,0.00,meteobridge,2013-08-19 11:20:00,
2013-08-19 04:26:00,65.7,57.6,29.81,SSW,201,0.0,0.0,75,0.00,,,0.00,meteobridge,2013-08-19 11:26:00,
2013-08-19 04:32:00,65.7,57.9,29.81,SSW,201,0.0,0.0,76,0.00,,,0.00,meteobridge,2013-08-19 11:32:00,
2013-08-19 04:38:00,65.3,57.6,29.81,SSW,201,0.0,0.0,76,0.00,,,0.00,meteobridge,2013-08-19 11:38:00,
2013-08-19 04:45:00,64.9,57.6,29.81,SSW,201,0.0,0.0,77,0.00,,,0.00,meteobridge,2013-08-19 11:45:00,
2013-08-19 04:51:00,64.9,57.6,29.81,SSW,201,0.0,0.0,77,0.00,,,0.00,meteobridge,2013-08-19 11:51:00,
2013-08-19 04:57:00,64.8,57.7,29.81,SSW,201,0.0,0.0,78,0.00,,,0.00,meteobridge,2013-08-19 11:57:00,
2013-08-19 05:03:00,64.6,57.6,29.82,South,191,0.0,0.0,78,0.00,,,0.00,meteobridge,2013-08-19 12:03:00,
2013-08-19 05:10:00,64.9,57.9,29.82,South,191,0.0,0.0,78,0.00,,,0.00,meteobridge,2013-08-19 12:10:00,
2013-08-19 05:16:00,64.9,57.6,29.83,South,191,0.0,0.0,77,0.00,,,0.00,meteobridge,2013-08-19 12:16:00,
2013-08-19 05:22:00,64.9,57.6,29.83,SSW,193,0.0,0.0,77,0.00,,,0.00,meteobridge,2013-08-19 12:22:00,
2013-08-19 05:28:00,64.8,57.7,29.83,SSW,193,0.0,0.0,78,0.00,,,0.00,meteobridge,2013-08-19 12:28:00,
2013-08-19 05:34:00,64.6,57.9,29.83,SSW,193,0.0,0.0,79,0.00,,,0.00,meteobridge,2013-08-19 12:34:00,
2013-08-19 05:41:00,64.2,57.6,29.83,SSW,193,0.0,0.0,79,0.00,,,0.00,meteobridge,2013-08-19 12:41:00,
2013-08-19 05:47:00,64.2,57.9,29.83,SSW,193,0.0,0.0,80,0.00,,,0.00,meteobridge,2013-08-19 12:47:00,
2013-08-19 05:53:00,64.2,57.6,29.83,SSW,192,0.0,0.0,79,0.00,,,0.00,meteobridge,2013-08-19 12:53:00,
2013-08-19 05:59:00,63.9,57.6,29.83,SSW,192,0.0,0.0,80,0.00,,,0.00,meteobridge,2013-08-19 12:59:00,
2013-08-19 06:05:00,63.9,57.6,29.83,SSW,211,0.0,0.9,80,0.00,,,0.00,meteobridge,2013-08-19 13:05:00,
2013-08-19 06:12:00,63.9,57.6,29.84,SSW,211,0.0,0.0,80,0.00,,,0.00,meteobridge,2013-08-19 13:12:00,
2013-08-19 06:18:00,64.2,57.9,29.84,West,274,0.0,0.9,80,0.00,,,0.00,meteobridge,2013-08-19 13:18:00,
2013-08-19 06:24:00,64.2,57.9,29.84,West,274,0.0,0.0,80,0.00,,,0.00,meteobridge,2013-08-19 13:24:00,
2013-08-19 06:30:00,64.4,57.7,29.84,West,274,0.0,0.0,79,0.00,,,0.00,meteobridge,2013-08-19 13:30:00,
2013-08-19 06:36:00,64.2,57.6,29.84,West,274,0.0,0.0,79,0.00,,,0.00,meteobridge,2013-08-19 13:36:00,
2013-08-19 06:43:00,64.2,57.9,29.85,West,274,0.0,0.0,80,0.00,,,0.00,meteobridge,2013-08-19 13:43:00,
2013-08-19 06:49:00,64.4,57.7,29.85,West,274,0.0,0.0,79,0.00,,,0.00,meteobridge,2013-08-19 13:49:00,
2013-08-19 06:55:00,64.8,58.1,29.85,West,274,0.0,0.0,79,0.00,,,0.00,meteobridge,2013-08-19 13:55:00,
2013-08-19 07:01:00,64.9,57.9,29.85,West,274,0.0,0.0,78,0.00,,,0.00,meteobridge,2013-08-19 14:01:00,
2013-08-19 07:07:00,65.7,58.3,29.85,West,274,0.0,0.0,77,0.00,,,0.00,meteobridge,2013-08-19 14:07:00,
2013-08-19 07:14:00,66.7,58.6,29.86,West,274,0.0,0.0,75,0.00,,,0.00,meteobridge,2013-08-19 14:14:00,
2013-08-19 07:20:00,67.3,58.3,29.86,West,277,0.0,0.0,73,0.00,,,0.00,meteobridge,2013-08-19 14:20:00,
2013-08-19 07:26:00,68.4,59.0,29.86,West,277,0.0,0.0,72,0.00,,,0.00,meteobridge,2013-08-19 14:26:00,
2013-08-19 07:32:00,69.4,58.8,29.86,West,277,0.0,0.0,69,0.00,,,0.00,meteobridge,2013-08-19 14:32:00,
2013-08-19 07:38:00,70.2,59.2,29.86,West,277,0.0,0.0,68,0.00,,,0.00,meteobridge,2013-08-19 14:38:00,
2013-08-19 07:45:00,70.5,59.4,29.86,West,277,0.0,0.0,68,0.00,,,0.00,meteobridge,2013-08-19 14:45:00,
2013-08-19 07:51:00,71.8,59.0,29.87,West,280,0.0,0.0,64,0.00,,,0.00,meteobridge,2013-08-19 14:51:00,
2013-08-19 07:57:00,72.7,58.8,29.87,West,279,0.0,0.0,62,0.00,,,0.00,meteobridge,2013-08-19 14:57:00,
2013-08-19 08:03:00,73.0,58.8,29.87,West,279,0.0,0.9,61,0.00,,,0.00,meteobridge,2013-08-19 15:03:00,
2013-08-19 08:10:00,73.0,58.3,29.87,ENE,73,0.0,0.0,60,0.00,,,0.00,meteobridge,2013-08-19 15:10:00,
2013-08-19 08:16:00,74.3,58.6,29.88,ENE,72,0.0,0.0,58,0.00,,,0.00,meteobridge,2013-08-19 15:16:00,
2013-08-19 08:22:00,75.7,59.4,29.88,ENE,72,0.0,0.0,57,0.00,,,0.00,meteobridge,2013-08-19 15:22:00,
2013-08-19 08:28:00,76.8,59.4,29.88,ENE,72,0.0,0.0,55,0.00,,,0.00,meteobridge,2013-08-19 15:28:00,
2013-08-19 08:34:00,76.8,59.4,29.88,ENE,72,0.0,0.0,55,0.00,,,0.00,meteobridge,2013-08-19 15:34:00,
2013-08-19 08:41:00,77.2,59.2,29.88,NW,312,0.0,0.9,54,0.00,,,0.00,meteobridge,2013-08-19 15:41:00,
2013-08-19 08:47:00,77.5,59.5,29.88,NW,320,0.0,0.0,54,0.00,,,0.00,meteobridge,2013-08-19 15:47:00,
2013-08-19 08:53:00,77.4,58.3,29.88,NW,323,0.0,2.0,52,0.00,,,0.00,meteobridge,2013-08-19 15:53:00,
2013-08-19 08:59:00,77.7,58.6,29.87,NW,323,0.0,0.9,52,0.00,,,0.00,meteobridge,2013-08-19 15:59:00,
2013-08-19 09:05:00,78.4,59.4,29.87,WNW,288,0.0,0.9,52,0.00,,,0.00,meteobridge,2013-08-19 16:05:00,
2013-08-19 09:12:00,78.6,59.5,29.87,NNW,333,0.9,0.9,52,0.00,,,0.00,meteobridge,2013-08-19 16:12:00,
2013-08-19 09:18:00,78.4,59.4,29.87,NW,324,2.9,2.9,52,0.00,,,0.00,meteobridge,2013-08-19 16:18:00,
2013-08-19 09:24:00,78.6,58.5,29.87,WNW,300,0.9,4.0,50,0.00,,,0.00,meteobridge,2013-08-19 16:24:00,
2013-08-19 09:30:00,79.5,58.1,29.87,NNW,333,0.9,2.0,48,0.00,,,0.00,meteobridge,2013-08-19 16:30:00,
2013-08-19 09:36:00,80.2,58.8,29.87,SW,219,0.0,2.0,48,0.00,,,0.00,meteobridge,2013-08-19 16:36:00,
2013-08-19 09:42:00,81.3,59.2,29.87,WNW,299,0.0,0.0,47,0.00,,,0.00,meteobridge,2013-08-19 16:42:00,
2013-08-19 09:49:00,82.0,58.6,29.88,North,352,0.0,2.0,45,0.00,,,0.00,meteobridge,2013-08-19 16:49:00,
2013-08-19 09:55:00,83.1,58.3,29.87,WSW,241,0.0,0.9,43,0.00,,,0.00,meteobridge,2013-08-19 16:55:00,
2013-08-19 10:01:00,84.2,58.6,29.87,NW,314,0.0,0.0,42,0.00,,,0.00,meteobridge,2013-08-19 17:01:00,
2013-08-19 10:07:00,85.1,59.4,29.87,West,259,0.0,2.0,42,0.00,,,0.00,meteobridge,2013-08-19 17:07:00,
2013-08-19 10:13:00,86.7,59.5,29.88,SSW,210,4.9,4.9,40,0.00,,,0.00,meteobridge,2013-08-19 17:13:00,
2013-08-19 10:19:00,86.5,59.4,29.88,SW,217,4.9,8.1,40,0.00,,,0.00,meteobridge,2013-08-19 17:19:00,
2013-08-19 10:24:00,86.7,60.3,29.88,SSE,167,0.0,2.0,41,0.00,,,0.00,meteobridge,2013-08-19 17:24:00,
2013-08-19 10:29:00,86.9,59.7,29.88,SSW,210,4.0,6.0,40,0.00,,,0.00,meteobridge,2013-08-19 17:29:00,
2013-08-19 10:35:00,87.3,59.9,29.88,SW,233,2.9,4.9,40,0.00,,,0.00,meteobridge,2013-08-19 17:35:00,
2013-08-19 10:41:00,88.0,59.9,29.88,SW,236,2.0,4.0,39,0.00,,,0.00,meteobridge,2013-08-19 17:41:00,
2013-08-19 10:47:00,88.5,59.7,29.88,SSE,151,2.9,4.0,38,0.00,,,0.00,meteobridge,2013-08-19 17:47:00,
2013-08-19 10:53:00,89.2,60.3,29.88,SSW,207,4.0,4.9,38,0.00,,,0.00,meteobridge,2013-08-19 17:53:00,
2013-08-19 10:59:00,89.4,59.0,29.88,SSW,192,2.9,4.9,36,0.00,,,0.00,meteobridge,2013-08-19 17:59:00,
2013-08-19 11:06:00,90.0,58.6,29.87,West,272,0.9,2.0,35,0.00,,,0.00,meteobridge,2013-08-19 18:06:00,
2013-08-19 11:12:00,90.5,59.2,29.87,SW,226,4.9,6.0,35,0.00,,,0.00,meteobridge,2013-08-19 18:12:00,
2013-08-19 11:18:00,90.7,58.5,29.87,South,174,2.9,4.9,34,0.00,,,0.00,meteobridge,2013-08-19 18:18:00,
2013-08-19 11:24:00,90.9,59.4,29.87,West,266,4.0,6.9,35,0.00,,,0.00,meteobridge,2013-08-19 18:24:00,
2013-08-19 11:30:00,91.0,59.5,29.87,West,266,4.9,6.9,35,0.00,,,0.00,meteobridge,2013-08-19 18:30:00,
2013-08-19 11:36:00,90.5,59.2,29.87,SW,219,2.0,6.9,35,0.00,,,0.00,meteobridge,2013-08-19 18:36:00,
2013-08-19 11:42:00,91.2,59.7,29.87,WSW,255,6.0,8.1,35,0.00,,,0.00,meteobridge,2013-08-19 18:42:00,
2013-08-19 11:48:00,90.9,59.4,29.87,WSW,243,4.9,10.1,35,0.00,,,0.00,meteobridge,2013-08-19 18:48:00,
2013-08-19 11:54:00,91.0,59.5,29.87,WSW,250,8.1,8.9,35,0.00,,,0.00,meteobridge,2013-08-19 18:54:00,
2013-08-19 12:00:00,90.7,60.1,29.87,SW,221,10.1,10.1,36,0.00,,,0.00,meteobridge,2013-08-19 19:00:00,
2013-08-19 12:06:00,91.0,59.5,29.86,West,261,6.0,8.9,35,0.00,,,0.00,meteobridge,2013-08-19 19:06:00,
2013-08-19 12:12:00,91.4,59.0,29.86,WNW,295,2.0,6.0,34,0.00,,,0.00,meteobridge,2013-08-19 19:12:00,
2013-08-19 12:18:00,91.9,58.6,29.86,SW,219,2.9,6.9,33,0.00,,,0.00,meteobridge,2013-08-19 19:18:00,
2013-08-19 12:24:00,92.5,59.2,29.85,West,281,4.9,8.1,33,0.00,,,0.00,meteobridge,2013-08-19 19:24:00,
2013-08-19 12:30:00,92.7,58.5,29.85,SSW,210,8.1,11.0,32,0.00,,,0.00,meteobridge,2013-08-19 19:30:00,
2013-08-19 12:36:00,93.7,59.4,29.85,SW,224,8.1,10.1,32,0.00,,,0.00,meteobridge,2013-08-19 19:36:00,
2013-08-19 12:42:00,93.7,59.4,29.85,WSW,237,4.0,6.0,32,0.00,,,0.00,meteobridge,2013-08-19 19:42:00,
2013-08-19 12:48:00,93.7,58.5,29.85,SSW,207,6.9,11.0,31,0.00,,,0.00,meteobridge,2013-08-19 19:48:00,
2013-08-19 12:54:00,93.7,58.5,29.85,West,261,6.9,11.0,31,0.00,,,0.00,meteobridge,2013-08-19 19:54:00,
2013-08-19 13:00:00,93.7,59.4,29.84,SW,224,6.9,12.1,32,0.00,,,0.00,meteobridge,2013-08-19 20:00:00,
2013-08-19 13:06:00,93.0,58.8,29.84,WSW,246,10.1,12.1,32,0.00,,,0.00,meteobridge,2013-08-19 20:06:00,
2013-08-19 13:12:00,92.7,59.4,29.84,West,266,4.9,12.1,33,0.00,,,0.00,meteobridge,2013-08-19 20:12:00,
2013-08-19 13:18:00,92.8,59.5,29.84,West,280,4.0,11.0,33,0.00,,,0.00,meteobridge,2013-08-19 20:18:00,
2013-08-19 13:24:00,93.4,58.3,29.84,SW,223,10.1,12.1,31,0.00,,,0.00,meteobridge,2013-08-19 20:24:00,
2013-08-19 13:30:00,93.2,59.0,29.83,SW,226,6.0,11.0,32,0.00,,,0.00,meteobridge,2013-08-19 20:30:00,
2013-08-19 13:36:00,93.2,59.0,29.83,West,265,4.0,13.0,32,0.00,,,0.00,meteobridge,2013-08-19 20:36:00,
2013-08-19 13:42:00,93.2,59.0,29.83,West,261,6.0,15.0,32,0.00,,,0.00,meteobridge,2013-08-19 20:42:00,
2013-08-19 13:48:00,93.0,58.8,29.83,SSW,211,6.9,13.0,32,0.00,,,0.00,meteobridge,2013-08-19 20:48:00,
2013-08-19 13:54:00,93.4,58.3,29.83,West,274,6.0,13.0,31,0.00,,,0.00,meteobridge,2013-08-19 20:54:00,
2013-08-19 14:00:00,93.6,58.5,29.83,SW,232,13.0,16.1,31,0.00,,,0.00,meteobridge,2013-08-19 21:00:00,
2013-08-19 14:06:00,93.2,58.1,29.83,WSW,257,4.9,11.0,31,0.00,,,0.00,meteobridge,2013-08-19 21:06:00,
2013-08-19 14:12:00,93.4,58.3,29.83,WSW,248,6.0,14.1,31,0.00,,,0.00,meteobridge,2013-08-19 21:12:00,
2013-08-19 14:18:00,93.6,57.4,29.83,SW,227,8.1,13.0,30,0.00,,,0.00,meteobridge,2013-08-19 21:18:00,
2013-08-19 14:24:00,93.2,57.2,29.82,NW,306,6.9,14.1,30,0.00,,,0.00,meteobridge,2013-08-19 21:24:00,
2013-08-19 14:30:00,93.7,57.6,29.82,SW,222,6.9,11.0,30,0.00,,,0.00,meteobridge,2013-08-19 21:30:00,
2013-08-19 14:36:00,94.1,57.0,29.82,SW,221,6.9,13.0,29,0.00,,,0.00,meteobridge,2013-08-19 21:36:00,
2013-08-19 14:42:00,93.9,57.7,29.82,SW,236,8.9,13.0,30,0.00,,,0.00,meteobridge,2013-08-19 21:42:00,
2013-08-19 14:48:00,94.3,58.1,29.82,SW,220,4.9,13.0,30,0.00,,,0.00,meteobridge,2013-08-19 21:48:00,
2013-08-19 14:54:00,94.5,57.4,29.82,SW,236,4.9,12.1,29,0.00,,,0.00,meteobridge,2013-08-19 21:54:00,
2013-08-19 15:00:00,94.3,57.2,29.82,SW,224,4.9,16.1,29,0.00,,,0.00,meteobridge,2013-08-19 22:00:00,
2013-08-19 15:06:00,94.6,56.5,29.81,SW,221,8.1,12.1,28,0.00,,,0.00,meteobridge,2013-08-19 22:06:00,
2013-08-19 15:12:00,93.9,55.9,29.81,SSW,206,13.0,15.0,28,0.00,,,0.00,meteobridge,2013-08-19 22:12:00,
2013-08-19 15:18:00,93.2,56.3,29.81,WSW,242,13.0,17.9,29,0.00,,,0.00,meteobridge,2013-08-19 22:18:00,
2013-08-19 15:24:00,92.5,55.6,29.81,SW,216,11.0,15.0,29,0.00,,,0.00,meteobridge,2013-08-19 22:24:00,
2013-08-19 15:31:00,92.7,55.8,29.81,SW,221,12.1,14.1,29,0.00,,,0.00,meteobridge,2013-08-19 22:31:00,
2013-08-19 15:37:00,92.3,55.4,29.81,West,274,6.9,16.1,29,0.00,,,0.00,meteobridge,2013-08-19 22:37:00,
2013-08-19 15:43:00,92.5,55.6,29.81,SW,214,6.0,12.1,29,0.00,,,0.00,meteobridge,2013-08-19 22:43:00,
2013-08-19 15:49:00,91.8,55.9,29.80,West,277,6.9,13.0,30,0.00,,,0.00,meteobridge,2013-08-19 22:49:00,
2013-08-19 15:55:00,91.6,55.8,29.80,NW,321,8.9,11.0,30,0.00,,,0.00,meteobridge,2013-08-19 22:55:00,
2013-08-19 16:01:00,91.0,55.2,29.80,SW,226,6.9,13.0,30,0.00,,,0.00,meteobridge,2013-08-19 23:01:00,
2013-08-19 16:07:00,90.1,54.5,29.80,WSW,258,10.1,14.1,30,0.00,,,0.00,meteobridge,2013-08-19 23:07:00,
2013-08-19 16:13:00,89.4,54.9,29.80,West,266,10.1,15.0,31,0.00,,,0.00,meteobridge,2013-08-19 23:13:00,
2013-08-19 16:19:00,88.9,54.3,29.80,SW,214,12.1,19.0,31,0.00,,,0.00,meteobridge,2013-08-19 23:19:00,
2013-08-19 16:25:00,87.6,55.0,29.80,SW,234,15.0,15.0,33,0.00,,,0.00,meteobridge,2013-08-19 23:25:00,
2013-08-19 16:31:00,86.9,54.3,29.80,SW,223,8.1,17.0,33,0.00,,,0.00,meteobridge,2013-08-19 23:31:00,
2013-08-19 16:37:00,86.9,54.3,29.80,SW,220,8.1,16.1,33,0.00,,,0.00,meteobridge,2013-08-19 23:37:00,
2013-08-19 16:43:00,86.5,54.0,29.80,NW,304,6.9,17.9,33,0.00,,,0.00,meteobridge,2013-08-19 23:43:00,
2013-08-19 16:49:00,86.4,54.7,29.80,SW,228,4.0,14.1,34,0.00,,,0.00,meteobridge,2013-08-19 23:49:00,
2013-08-19 16:55:00,86.4,54.7,29.80,WSW,245,10.1,12.1,34,0.00,,,0.00,meteobridge,2013-08-19 23:55:00,
2013-08-19 17:01:00,86.4,54.7,29.80,SSW,196,6.9,15.0,34,0.00,,,0.00,meteobridge,2013-08-20 00:01:00,
2013-08-19 17:07:00,85.8,54.1,29.80,SSW,206,15.0,15.0,34,0.00,,,0.00,meteobridge,2013-08-20 00:07:00,
2013-08-19 17:13:00,85.3,54.5,29.80,WSW,253,10.1,15.0,35,0.00,,,0.00,meteobridge,2013-08-20 00:13:00,
2013-08-19 17:19:00,84.6,54.0,29.80,SSW,213,11.0,16.1,35,0.00,,,0.00,meteobridge,2013-08-20 00:19:00,
2013-08-19 17:25:00,84.2,53.6,29.80,WSW,257,10.1,17.0,35,0.00,,,0.00,meteobridge,2013-08-20 00:25:00,
2013-08-19 17:31:00,84.0,53.4,29.80,SW,227,12.1,15.0,35,0.00,,,0.00,meteobridge,2013-08-20 00:31:00,
2013-08-19 17:37:00,83.7,54.0,29.80,WSW,253,14.1,14.1,36,0.00,,,0.00,meteobridge,2013-08-20 00:37:00,
2013-08-19 17:43:00,83.3,54.3,29.80,WSW,239,8.9,14.1,37,0.00,,,0.00,meteobridge,2013-08-20 00:43:00,
2013-08-19 17:49:00,83.1,54.1,29.80,SW,233,8.1,15.0,37,0.00,,,0.00,meteobridge,2013-08-20 00:49:00,
2013-08-19 17:55:00,82.8,53.8,29.80,WSW,244,4.9,12.1,37,0.00,,,0.00,meteobridge,2013-08-20 00:55:00,
2013-08-19 18:01:00,82.6,53.6,29.80,SW,226,8.1,11.0,37,0.00,,,0.00,meteobridge,2013-08-20 01:01:00,
2013-08-19 18:07:00,82.6,53.6,29.80,SW,226,13.0,15.0,37,0.00,,,0.00,meteobridge,2013-08-20 01:07:00,
2013-08-19 18:13:00,82.2,53.4,29.80,West,276,6.0,14.1,37,0.00,,,0.00,meteobridge,2013-08-20 01:13:00,
2013-08-19 18:19:00,82.2,52.5,29.80,SW,220,6.0,16.1,36,0.00,,,0.00,meteobridge,2013-08-20 01:19:00,
2013-08-19 18:25:00,82.0,52.5,29.80,West,267,8.9,17.0,36,0.00,,,0.00,meteobridge,2013-08-20 01:25:00,
2013-08-19 18:31:00,81.9,52.3,29.80,West,279,2.9,10.1,36,0.00,,,0.00,meteobridge,2013-08-20 01:31:00,
2013-08-19 18:37:00,81.9,52.3,29.81,West,272,6.0,11.0,36,0.00,,,0.00,meteobridge,2013-08-20 01:37:00,
2013-08-19 18:43:00,81.7,52.2,29.81,SSW,212,4.9,17.0,36,0.00,,,0.00,meteobridge,2013-08-20 01:43:00,
2013-08-19 18:49:00,81.1,50.9,29.81,West,268,10.1,13.0,35,0.00,,,0.00,meteobridge,2013-08-20 01:49:00,
2013-08-19 18:55:00,80.8,51.3,29.81,WSW,240,10.1,12.1,36,0.00,,,0.00,meteobridge,2013-08-20 01:55:00,
2013-08-19 19:01:00,80.4,50.2,29.81,WSW,244,8.9,14.1,35,0.00,,,0.00,meteobridge,2013-08-20 02:01:00,
2013-08-19 19:07:00,80.2,50.2,29.81,WSW,238,14.1,16.1,35,0.00,,,0.00,meteobridge,2013-08-20 02:07:00,
2013-08-19 19:13:00,79.9,49.8,29.82,SSW,207,15.0,17.9,35,0.00,,,0.00,meteobridge,2013-08-20 02:13:00,
2013-08-19 19:19:00,79.5,48.7,29.82,WSW,238,4.9,13.0,34,0.00,,,0.00,meteobridge,2013-08-20 02:19:00,
2013-08-19 19:25:00,79.2,49.1,29.82,WSW,239,4.9,13.0,35,0.00,,,0.00,meteobridge,2013-08-20 02:25:00,
2013-08-19 19:31:00,78.4,48.6,29.82,WSW,248,4.9,13.0,35,0.00,,,0.00,meteobridge,2013-08-20 02:31:00,
2013-08-19 19:38:00,77.7,49.5,29.82,West,271,4.0,8.9,37,0.00,,,0.00,meteobridge,2013-08-20 02:38:00,
2013-08-19 19:44:00,77.2,50.4,29.82,SW,215,2.0,11.0,39,0.00,,,0.00,meteobridge,2013-08-20 02:44:00,
2013-08-19 19:50:00,76.5,50.4,29.82,SSW,206,0.9,8.9,40,0.00,,,0.00,meteobridge,2013-08-20 02:50:00,
2013-08-19 19:56:00,75.7,50.4,29.82,SW,235,2.9,10.1,41,0.00,,,0.00,meteobridge,2013-08-20 02:56:00,
2013-08-19 20:02:00,75.2,50.5,29.83,SSW,211,4.0,10.1,42,0.00,,,0.00,meteobridge,2013-08-20 03:02:00,
2013-08-19 20:08:00,74.8,50.2,29.83,WNW,295,0.0,8.1,42,0.00,,,0.00,meteobridge,2013-08-20 03:08:00,
2013-08-19 20:14:00,74.7,49.5,29.83,WSW,251,6.9,10.1,41,0.00,,,0.00,meteobridge,2013-08-20 03:14:00,
2013-08-19 20:20:00,74.3,49.6,29.83,WSW,255,4.9,10.1,42,0.00,,,0.00,meteobridge,2013-08-20 03:20:00,
2013-08-19 20:26:00,73.8,50.5,29.83,WSW,255,10.1,12.1,44,0.00,,,0.00,meteobridge,2013-08-20 03:26:00,
2013-08-19 20:32:00,73.2,51.3,29.83,WSW,256,8.9,12.1,46,0.00,,,0.00,meteobridge,2013-08-20 03:32:00,
2013-08-19 20:38:00,72.9,51.4,29.84,West,267,6.9,11.0,47,0.00,,,0.00,meteobridge,2013-08-20 03:38:00,
2013-08-19 20:44:00,72.3,51.4,29.84,West,267,6.9,12.1,48,0.00,,,0.00,meteobridge,2013-08-20 03:44:00,
2013-08-19 20:50:00,72.0,51.8,29.84,West,273,4.9,11.0,49,0.00,,,0.00,meteobridge,2013-08-20 03:50:00,
2013-08-19 20:56:00,71.8,52.2,29.85,West,269,2.0,8.9,50,0.00,,,0.00,meteobridge,2013-08-20 03:56:00,
2013-08-19 21:02:00,71.6,52.0,29.85,West,264,4.0,6.9,50,0.00,,,0.00,meteobridge,2013-08-20 04:02:00,
2013-08-19 21:04:00,71.4,52.3,29.85,West,278,6.9,13.0,51,0.00,,,0.00,meteobridge,2013-08-20 04:04:00,
2013-08-19 21:10:00,71.2,52.7,29.85,WSW,257,6.9,12.1,52,0.00,,,0.00,meteobridge,2013-08-20 04:10:00,
2013-08-19 21:12:00,71.1,52.5,29.85,SW,214,10.1,12.1,52,0.00,,,0.00,meteobridge,2013-08-20 04:12:00,
2013-08-19 21:16:00,71.1,52.5,29.85,West,268,6.0,8.9,52,0.00,,,0.00,meteobridge,2013-08-20 04:16:00,
2013-08-19 21:22:00,70.9,52.9,29.85,SSW,203,4.9,10.1,53,0.00,,,0.00,meteobridge,2013-08-20 04:22:00,
2013-08-19 21:28:00,70.5,53.1,29.86,SSW,208,6.9,11.0,54,0.00,,,0.00,meteobridge,2013-08-20 04:28:00,
2013-08-19 21:34:00,70.2,53.2,29.87,SW,236,6.0,6.9,55,0.00,,,0.00,meteobridge,2013-08-20 04:34:00,
2013-08-19 21:40:00,70.2,53.8,29.87,West,264,6.0,10.1,56,0.00,,,0.00,meteobridge,2013-08-20 04:40:00,
2013-08-19 21:46:00,70.2,54.1,29.87,West,260,2.9,8.9,57,0.00,,,0.00,meteobridge,2013-08-20 04:46:00,
2013-08-19 21:52:00,70.2,54.1,29.87,WSW,257,4.0,10.1,57,0.00,,,0.00,meteobridge,2013-08-20 04:52:00,
2013-08-19 21:58:00,70.3,54.3,29.87,West,276,4.0,8.9,57,0.00,,,0.00,meteobridge,2013-08-20 04:58:00,
2013-08-19 22:04:00,70.3,54.9,29.87,SW,220,4.0,6.0,58,0.00,,,0.00,meteobridge,2013-08-20 05:04:00,
2013-08-19 22:10:00,70.5,55.0,29.87,West,259,4.9,6.9,58,0.00,,,0.00,meteobridge,2013-08-20 05:10:00,
2013-08-19 22:16:00,70.5,55.6,29.87,SW,225,8.1,10.1,59,0.00,,,0.00,meteobridge,2013-08-20 05:16:00,
2013-08-19 22:22:00,70.5,55.6,29.87,West,281,6.0,8.1,59,0.00,,,0.00,meteobridge,2013-08-20 05:22:00,
2013-08-19 22:28:00,70.5,55.6,29.87,WSW,255,8.9,10.1,59,0.00,,,0.00,meteobridge,2013-08-20 05:28:00,
2013-08-19 22:34:00,70.5,55.9,29.88,WSW,255,2.9,10.1,60,0.00,,,0.00,meteobridge,2013-08-20 05:34:00,
2013-08-19 22:40:00,71.1,56.5,29.88,WNW,284,2.0,6.0,60,0.00,,,0.00,meteobridge,2013-08-20 05:40:00,
2013-08-19 22:46:00,71.2,55.8,29.88,WSW,245,0.9,4.0,58,0.00,,,0.00,meteobridge,2013-08-20 05:46:00,
2013-08-19 22:52:00,71.1,55.9,29.89,West,266,4.0,6.9,59,0.00,,,0.00,meteobridge,2013-08-20 05:52:00,
2013-08-19 22:58:00,70.3,55.4,29.90,SW,233,4.0,6.0,59,0.00,,,0.00,meteobridge,2013-08-20 05:58:00,
2013-08-19 23:04:00,69.8,55.2,29.90,WSW,246,4.0,4.9,60,0.00,,,0.00,meteobridge,2013-08-20 06:04:00,
2013-08-19 23:10:00,69.3,55.2,29.90,WSW,255,2.9,6.9,61,0.00,,,0.00,meteobridge,2013-08-20 06:10:00,
2013-08-19 23:16:00,69.3,55.2,29.89,SW,214,0.9,2.0,61,0.00,,,0.00,meteobridge,2013-08-20 06:16:00,
2013-08-19 23:22:00,69.4,55.4,29.88,SW,233,0.9,2.9,61,0.00,,,0.00,meteobridge,2013-08-20 06:22:00,
2013-08-19 23:28:00,69.6,55.0,29.88,WSW,240,2.0,2.9,60,0.00,,,0.00,meteobridge,2013-08-20 06:28:00,
2013-08-19 23:35:00,70.2,56.1,29.87,West,281,0.0,2.0,61,0.00,,,0.00,meteobridge,2013-08-20 06:35:00,
2013-08-19 23:41:00,70.5,56.5,29.87,WNW,285,0.0,0.9,61,0.00,,,0.00,meteobridge,2013-08-20 06:41:00,
2013-08-19 23:47:00,70.9,56.3,29.86,WSW,247,0.0,2.0,60,0.00,,,0.00,meteobridge,2013-08-20 06:47:00,
2013-08-19 23:53:00,71.1,56.5,29.86,NNW,336,0.0,4.9,60,0.00,,,0.00,meteobridge,2013-08-20 06:53:00,
2013-08-19 23:59:00,71.2,56.7,29.86,West,274,0.9,4.0,60,0.00,,,0.00,meteobridge,2013-08-20 06:59:00,